CheckWX is a tool to help pilots better visualize weather data.  It is not intended as a substitute for an official pre-flight weather briefing.

13:49:03 UTC

0R4 METAR
Concordia Parish Airport
Vidalia, Louisiana, USA
Current

34 mins ago

K0R4 201315Z AUTO 15004KT 10SM OVC005 23/22 A3001 RMK AO2 T02290219
Observed
May-20 @ 13:15 UTC
Wind
  • 150° at 4 KTS
Visibility
10 SM
Flight Rules
IFR
Cloud Levels
  • Overcast at 500' AGL
Temperature
23°C / 73°F
Dewpoint
22°C / 72°F
Humidity
94%
Altimeter
30.01" Hg
Pressure
1016.22 hPa
Previous

54 mins ago

K0R4 201255Z AUTO 15004KT 10SM OVC005 23/22 A3001 RMK AO2 T02270217
Observed
May-20 @ 12:55 UTC
Wind
  • 150° at 4 KTS
Visibility
10 SM
Flight Rules
IFR
Cloud Levels
  • Overcast at 500' AGL
Temperature
23°C / 73°F
Dewpoint
22°C / 72°F
Humidity
94%
Altimeter
30.01" Hg
Pressure
1016.22 hPa
Previous

1 hour ago

K0R4 201235Z AUTO 15004KT 10SM OVC007 22/22 A3001 RMK AO2 T02240215
Observed
May-20 @ 12:35 UTC
Wind
  • 150° at 4 KTS
Visibility
10 SM
Flight Rules
IFR
Cloud Levels
  • Overcast at 700' AGL
Temperature
22°C / 72°F
Dewpoint
22°C / 72°F
Humidity
100%
Altimeter
30.01" Hg
Pressure
1016.22 hPa